P. B. Shah — WDB8609 — position and weather

sailwx.info

Track history (hours):
 
Tides and Currents Weather Stations Pressure Air Temp Water Temp Dewpoint Dewpoint Depression Visibility Wind Speed Wind Dir Waves Ship Positions

P. B. Shah

Owner: INGRAM BARGE COMPANY, Nashville, TN. More information available from US FCC via Universal Licensing System and Coast Guard Vessel Documentation Center.

Last reported at 2015-May-18 00:26 UTC. Time now 2015-May-30 18:29 UTC.
Position N 30°45' W 091°22'.
Warning: this ship's position is 12 days out of date.

Length 46 m; draft 3.1 m.

Type: Towing. MMSI: 366961480.

Date/timePositionNaut miles runAvg speedWind from/ knotsBaromVisibWave heightAir tempDewpointWater temp
2015-May-18 00:26N 30°45' W 091°22'4 5.1
2015-May-17 23:33N 30°41' W 091°20'5 4.7
2015-May-17 22:33N 30°37' W 091°18'3 2.6
2015-May-17 21:33N 30°34' W 091°17'3 2.7
2015-May-17 20:33N 30°32' W 091°15'1 1.4
2015-May-17 19:33N 30°31' W 091°14'3 2.7
2015-May-17 18:33N 30°29' W 091°12'0 0.0
2015-May-17 17:33N 30°29' W 091°12'0 0.0
2015-May-17 16:33N 30°29' W 091°12'0 0.0
2015-May-17 15:33N 30°29' W 091°12'0 0.0
2015-May-17 14:33N 30°29' W 091°12'0 0.2
2015-May-17 13:33N 30°30' W 091°12'0 0.1
2015-May-17 12:33N 30°29' W 091°12'0 0.2
2015-May-17 11:33N 30°29' W 091°12'0 0.0
2015-May-17 10:33N 30°29' W 091°12'0 0.1
2015-May-17 09:33N 30°29' W 091°12'2 2.0
2015-May-17 08:33N 30°31' W 091°13'3 3.2
2015-May-17 07:33N 30°31' W 091°17'1 1.2
2015-May-17 06:33N 30°32' W 091°16'0 0.1
2015-May-17 05:33N 30°32' W 091°16'3 2.7
2015-May-17 04:33N 30°34' W 091°17'7 6.1
2015-May-17 03:26N 30°40' W 091°21'  
Track history (hours):
 
Tides and Currents Weather Stations Pressure Air Temp Water Temp Dewpoint Dewpoint Depression Visibility Wind Speed Wind Dir Waves Ship Positions

P. B. Shah

Owner: INGRAM BARGE COMPANY, Nashville, TN. More information available from US FCC via Universal Licensing System and Coast Guard Vessel Documentation Center.

Last reported at 2015-May-18 00:26 UTC. Time now 2015-May-30 18:29 UTC.
Position N 30°45' W 091°22'.
Warning: this ship's position is 12 days out of date.

Length 46 m; draft 3.1 m.

Type: Towing. MMSI: 366961480.

Date/timePositionNaut miles runAvg speedWind from/ knotsBaromVisibWave heightAir tempDewpointWater temp
2015-May-18 00:26N 30°45' W 091°22'4 5.1
2015-May-17 23:33N 30°41' W 091°20'5 4.7
2015-May-17 22:33N 30°37' W 091°18'3 2.6
2015-May-17 21:33N 30°34' W 091°17'3 2.7
2015-May-17 20:33N 30°32' W 091°15'1 1.4
2015-May-17 19:33N 30°31' W 091°14'3 2.7
2015-May-17 18:33N 30°29' W 091°12'0 0.0
2015-May-17 17:33N 30°29' W 091°12'0 0.0
2015-May-17 16:33N 30°29' W 091°12'0 0.0
2015-May-17 15:33N 30°29' W 091°12'0 0.0
2015-May-17 14:33N 30°29' W 091°12'0 0.2
2015-May-17 13:33N 30°30' W 091°12'0 0.1
2015-May-17 12:33N 30°29' W 091°12'0 0.2
2015-May-17 11:33N 30°29' W 091°12'0 0.0
2015-May-17 10:33N 30°29' W 091°12'0 0.1
2015-May-17 09:33N 30°29' W 091°12'2 2.0
2015-May-17 08:33N 30°31' W 091°13'3 3.2
2015-May-17 07:33N 30°31' W 091°17'1 1.2
2015-May-17 06:33N 30°32' W 091°16'0 0.1
2015-May-17 05:33N 30°32' W 091°16'3 2.7
2015-May-17 04:33N 30°34' W 091°17'7 6.1
2015-May-17 03:26N 30°40' W 091°21'  

Dump ship's entire track history